createdAt,value
2019-02-24T00:02:13.839Z,102305.00
2019-02-24T00:04:46.702Z,102309.00
2019-02-24T00:07:19.532Z,102308.00
2019-02-24T00:09:52.354Z,102299.00
2019-02-24T00:12:25.303Z,102307.00
2019-02-24T00:14:58.161Z,102308.00
2019-02-24T00:17:31.995Z,102319.00
2019-02-24T00:20:05.233Z,102302.00
2019-02-24T00:22:39.094Z,102307.00
2019-02-24T00:25:11.907Z,102308.00
2019-02-24T00:27:44.759Z,102307.00
2019-02-24T00:30:17.625Z,102305.00
2019-02-24T00:32:50.449Z,102304.00
2019-02-24T00:35:23.294Z,102305.00
2019-02-24T00:37:56.145Z,102297.00
2019-02-24T00:40:29.012Z,102295.00
2019-02-24T00:43:01.819Z,102289.00
2019-02-24T00:45:34.630Z,102292.00
2019-02-24T00:48:07.454Z,102285.00
2019-02-24T00:50:44.417Z,102279.00
2019-02-24T00:53:17.271Z,102278.00
2019-02-24T00:55:50.102Z,102275.00
2019-02-24T00:58:22.972Z,102279.00
2019-02-24T01:00:55.812Z,102282.00
2019-02-24T01:03:28.676Z,102278.00
2019-02-24T01:06:01.486Z,102284.00
2019-02-24T01:08:34.308Z,102279.00
2019-02-24T01:11:07.137Z,102275.00
2019-02-24T01:13:40.012Z,102279.00
2019-02-24T01:16:12.846Z,102279.00
2019-02-24T01:18:45.705Z,102291.00
2019-02-24T01:21:18.574Z,102290.00
2019-02-24T01:23:51.413Z,102296.00
2019-02-24T01:26:24.267Z,102283.00
2019-02-24T01:28:57.238Z,102291.00
2019-02-24T01:31:30.058Z,102296.00
2019-02-24T01:34:02.887Z,102294.00
2019-02-24T01:36:35.700Z,102294.00
2019-02-24T01:39:08.522Z,102291.00
2019-02-24T01:41:41.528Z,102291.00
2019-02-24T01:44:14.375Z,102279.00
2019-02-24T01:46:47.327Z,102286.00
2019-02-24T01:49:20.196Z,102282.00
2019-02-24T01:51:53.013Z,102289.00
2019-02-24T01:54:25.836Z,102276.00
2019-02-24T01:56:58.661Z,102274.00
2019-02-24T01:59:31.519Z,102276.00
2019-02-24T02:02:04.353Z,102279.00
2019-02-24T02:04:37.174Z,102272.00
2019-02-24T02:07:10.107Z,102270.00
2019-02-24T02:09:42.885Z,102276.00
2019-02-24T02:12:17.664Z,102276.00
2019-02-24T02:14:50.497Z,102271.00
2019-02-24T02:17:23.317Z,102268.00
2019-02-24T02:19:56.124Z,102272.00
2019-02-24T02:22:28.955Z,102265.00
2019-02-24T02:25:01.761Z,102262.00
2019-02-24T02:27:35.735Z,102269.00
2019-02-24T02:30:09.211Z,102268.00
2019-02-24T02:32:42.234Z,102269.00
2019-02-24T02:35:15.063Z,102270.00
2019-02-24T02:37:47.910Z,102268.00
2019-02-24T02:40:20.736Z,102257.00
2019-02-24T02:42:53.586Z,102248.00
2019-02-24T02:45:26.408Z,102263.00
2019-02-24T02:47:59.209Z,102251.00
2019-02-24T02:50:32.020Z,102256.00
2019-02-24T02:53:04.892Z,102254.00
2019-02-24T02:55:37.716Z,102258.00
2019-02-24T02:58:10.752Z,102259.00
2019-02-24T03:00:43.576Z,102270.00
2019-02-24T03:03:16.405Z,102268.00
2019-02-24T03:06:08.812Z,102261.00
2019-02-24T03:08:46.013Z,102257.00
2019-02-24T03:11:18.807Z,102252.00
2019-02-24T03:13:51.695Z,102259.00
2019-02-24T03:16:27.032Z,102250.00
2019-02-24T03:18:59.837Z,102262.00
2019-02-24T03:21:34.465Z,102253.00
2019-02-24T03:24:07.287Z,102265.00
2019-02-24T03:26:40.116Z,102269.00
2019-02-24T03:29:12.955Z,102260.00
2019-02-24T03:31:45.770Z,102258.00
2019-02-24T03:34:18.568Z,102249.00
2019-02-24T03:36:51.405Z,102256.00
2019-02-24T03:39:24.228Z,102264.00
2019-02-24T03:41:57.128Z,102252.00
2019-02-24T03:44:29.940Z,102254.00
2019-02-24T03:47:02.747Z,102265.00
2019-02-24T03:49:35.599Z,102258.00
2019-02-24T03:52:08.407Z,102253.00
2019-02-24T03:54:41.208Z,102262.00
2019-02-24T03:57:14.017Z,102245.00
2019-02-24T03:59:46.853Z,102260.00
2019-02-24T04:02:19.640Z,102255.00
2019-02-24T04:04:52.547Z,102251.00
2019-02-24T04:07:25.357Z,102250.00
2019-02-24T04:09:58.158Z,102263.00
2019-02-24T04:12:30.939Z,102246.00
2019-02-24T04:15:04.213Z,102245.00
2019-02-24T04:17:37.023Z,102252.00
2019-02-24T04:20:09.847Z,102245.00
2019-02-24T04:22:42.676Z,102254.00
2019-02-24T04:25:15.492Z,102242.00
2019-02-24T04:27:48.283Z,102248.00
2019-02-24T04:30:22.301Z,102243.00
2019-02-24T04:32:55.121Z,102249.00
2019-02-24T04:35:27.991Z,102243.00
2019-02-24T04:38:00.966Z,102241.00
2019-02-24T04:40:33.807Z,102246.00
2019-02-24T04:43:06.611Z,102245.00
2019-02-24T04:45:39.424Z,102245.00
2019-02-24T04:48:12.224Z,102237.00
2019-02-24T04:50:45.035Z,102249.00
2019-02-24T04:53:17.947Z,102250.00
2019-02-24T04:55:50.779Z,102240.00
2019-02-24T04:58:23.593Z,102247.00
2019-02-24T05:00:56.399Z,102248.00
2019-02-24T05:03:29.201Z,102245.00
2019-02-24T05:06:02.015Z,102248.00
2019-02-24T05:08:34.818Z,102252.00
2019-02-24T05:11:07.627Z,102243.00
2019-02-24T05:13:40.426Z,102245.00
2019-02-24T05:16:13.238Z,102247.00
2019-02-24T05:18:46.048Z,102265.00
2019-02-24T05:21:18.864Z,102260.00
2019-02-24T05:23:51.736Z,102254.00
2019-02-24T05:26:24.561Z,102269.00
2019-02-24T05:28:57.376Z,102261.00
2019-02-24T05:31:30.203Z,102262.00
2019-02-24T05:34:03.006Z,102259.00
2019-02-24T05:36:35.847Z,102264.00
2019-02-24T05:39:08.655Z,102264.00
2019-02-24T05:41:41.442Z,102254.00
2019-02-24T05:44:14.285Z,102270.00
2019-02-24T05:46:47.088Z,102263.00
2019-02-24T05:49:19.900Z,102257.00
2019-02-24T05:51:52.741Z,102258.00
2019-02-24T05:54:25.601Z,102258.00
2019-02-24T05:56:59.497Z,102250.00
2019-02-24T05:59:32.326Z,102251.00
2019-02-24T06:02:05.141Z,102243.00
2019-02-24T06:04:37.979Z,102251.00
2019-02-24T06:07:10.799Z,102261.00
2019-02-24T06:09:44.741Z,102256.00
2019-02-24T06:12:17.562Z,102268.00
2019-02-24T06:14:50.396Z,102289.00
2019-02-24T06:17:23.194Z,102280.00
2019-02-24T06:19:56.023Z,102272.00
2019-02-24T06:22:28.805Z,102283.00
2019-02-24T06:25:01.718Z,102275.00
2019-02-24T06:27:34.736Z,102284.00
2019-02-24T06:30:07.653Z,102283.00
2019-02-24T06:32:40.451Z,102295.00
2019-02-24T06:35:13.304Z,102286.00
2019-02-24T06:37:46.113Z,102290.00
2019-02-24T06:40:18.943Z,102280.00
2019-02-24T06:42:51.789Z,102289.00
2019-02-24T06:45:24.626Z,102285.00
2019-02-24T06:47:57.415Z,102302.00
2019-02-24T06:50:49.924Z,102288.00
2019-02-24T06:53:23.274Z,102291.00
2019-02-24T06:55:56.093Z,102296.00
2019-02-24T06:58:28.918Z,102304.00
2019-02-24T07:01:02.875Z,102296.00
2019-02-24T07:03:35.847Z,102304.00
2019-02-24T07:06:08.966Z,102310.00
2019-02-24T07:08:41.791Z,102312.00
2019-02-24T07:11:14.623Z,102318.00
2019-02-24T07:13:47.453Z,102335.00
2019-02-24T07:16:20.276Z,102332.00
2019-02-24T07:18:53.126Z,102328.00
2019-02-24T07:21:25.931Z,102337.00
2019-02-24T07:23:58.758Z,102340.00
2019-02-24T07:26:31.558Z,102343.00
2019-02-24T07:29:04.395Z,102342.00
2019-02-24T07:31:37.222Z,102351.00
2019-02-24T07:34:10.057Z,102341.00
2019-02-24T07:36:42.870Z,102348.00
2019-02-24T07:39:15.688Z,102341.00
2019-02-24T07:41:48.532Z,102346.00
2019-02-24T07:44:21.483Z,102346.00
2019-02-24T07:46:54.315Z,102344.00
2019-02-24T07:49:27.126Z,102343.00
2019-02-24T07:51:59.979Z,102347.00
2019-02-24T07:54:32.793Z,102349.00
2019-02-24T07:57:05.618Z,102347.00
2019-02-24T07:59:38.469Z,102332.00
2019-02-24T08:02:11.411Z,102332.00
2019-02-24T08:04:44.268Z,102327.00
2019-02-24T08:07:17.130Z,102324.00
2019-02-24T08:09:49.986Z,102316.00
2019-02-24T08:12:23.077Z,102318.00
2019-02-24T08:14:55.903Z,102317.00
2019-02-24T08:17:28.733Z,102321.00
2019-02-24T08:20:01.593Z,102310.00
2019-02-24T08:22:34.443Z,102320.00
2019-02-24T08:25:08.255Z,102319.00
2019-02-24T08:27:41.129Z,102322.00
2019-02-24T08:30:13.977Z,102321.00
2019-02-24T08:32:47.033Z,102339.00
2019-02-24T08:35:19.881Z,102334.00
2019-02-24T08:37:52.747Z,102344.00
2019-02-24T08:40:25.578Z,102349.00
2019-02-24T08:42:58.542Z,102344.00
2019-02-24T08:45:31.521Z,102346.00
2019-02-24T08:48:04.402Z,102355.00
2019-02-24T08:50:37.225Z,102352.00
2019-02-24T08:53:10.074Z,102366.00
2019-02-24T08:55:42.919Z,102365.00
2019-02-24T08:58:16.262Z,102374.00
2019-02-24T09:00:51.251Z,102375.00
2019-02-24T09:03:23.841Z,102372.00
2019-02-24T09:05:56.680Z,102371.00
2019-02-24T09:08:29.551Z,102369.00
2019-02-24T09:11:02.397Z,102365.00
2019-02-24T09:13:35.259Z,102364.00
2019-02-24T09:16:08.304Z,102363.00
2019-02-24T09:18:41.157Z,102372.00
2019-02-24T09:21:13.982Z,102378.00
2019-02-24T09:23:46.854Z,102383.00
2019-02-24T09:26:19.681Z,102383.00
2019-02-24T09:28:52.661Z,102386.00
2019-02-24T09:31:25.510Z,102375.00
2019-02-24T09:33:58.322Z,102376.00
2019-02-24T09:36:31.247Z,102373.00
2019-02-24T09:39:04.807Z,102376.00
2019-02-24T09:41:38.383Z,102383.00
2019-02-24T09:44:11.380Z,102390.00
2019-02-24T09:46:44.229Z,102394.00
2019-02-24T09:49:17.091Z,102398.00
2019-02-24T09:51:50.036Z,102395.00
2019-02-24T09:54:22.935Z,102395.00
2019-02-24T09:56:55.921Z,102399.00
2019-02-24T09:59:28.806Z,102404.00
2019-02-24T10:02:01.818Z,102405.00
2019-02-24T10:04:35.797Z,102398.00
2019-02-24T10:07:08.724Z,102416.00
2019-02-24T10:09:41.592Z,102393.00
2019-02-24T10:12:14.496Z,102405.00
2019-02-24T10:14:47.473Z,102416.00
2019-02-24T10:17:20.396Z,102417.00
2019-02-24T10:19:53.326Z,102427.00
2019-02-24T10:22:26.195Z,102426.00
2019-02-24T10:24:59.032Z,102429.00
2019-02-24T10:27:32.022Z,102423.00
2019-02-24T10:30:05.198Z,102419.00
2019-02-24T10:32:40.508Z,102422.00
2019-02-24T10:35:13.602Z,102413.00
2019-02-24T10:37:46.594Z,102418.00
2019-02-24T10:40:19.442Z,102422.00
2019-02-24T10:42:52.440Z,102425.00
2019-02-24T10:45:25.561Z,102423.00
2019-02-24T10:47:58.497Z,102424.00
2019-02-24T10:50:31.374Z,102424.00
2019-02-24T10:53:04.294Z,102418.00
2019-02-24T10:55:37.303Z,102423.00
2019-02-24T10:58:10.185Z,102420.00
2019-02-24T11:00:43.122Z,102417.00
2019-02-24T11:03:15.989Z,102421.00
2019-02-24T11:05:48.940Z,102423.00
2019-02-24T11:08:21.983Z,102427.00
2019-02-24T11:10:54.871Z,102421.00
2019-02-24T11:13:27.747Z,102413.00
2019-02-24T11:16:00.946Z,102415.00
2019-02-24T11:18:33.843Z,102404.00
2019-02-24T11:21:06.712Z,102406.00
2019-02-24T11:23:39.842Z,102414.00
2019-02-24T11:26:12.828Z,102408.00
2019-02-24T11:28:45.779Z,102401.00
2019-02-24T11:31:18.686Z,102403.00
2019-02-24T11:33:51.555Z,102409.00
2019-02-24T11:36:24.453Z,102405.00
2019-02-24T11:38:57.456Z,102414.00
2019-02-24T11:41:30.346Z,102409.00
2019-02-24T11:44:03.258Z,102401.00
2019-02-24T11:46:36.201Z,102409.00
2019-02-24T11:49:09.084Z,102402.00
2019-02-24T11:51:41.916Z,102413.00
2019-02-24T11:54:14.789Z,102407.00
2019-02-24T11:56:47.681Z,102410.00
2019-02-24T11:59:20.599Z,102407.00
2019-02-24T12:01:53.451Z,102396.00
2019-02-24T12:04:26.327Z,102397.00
2019-02-24T12:06:59.193Z,102401.00
2019-02-24T12:09:32.123Z,102402.00
2019-02-24T12:12:04.961Z,102396.00
2019-02-24T12:14:37.837Z,102388.00
2019-02-24T12:17:10.674Z,102385.00
2019-02-24T12:19:43.529Z,102388.00
2019-02-24T12:22:16.409Z,102391.00
2019-02-24T12:24:49.269Z,102392.00
2019-02-24T12:27:22.180Z,102384.00
2019-02-24T12:29:55.139Z,102373.00
2019-02-24T12:32:28.014Z,102382.00
2019-02-24T12:35:00.860Z,102389.00
2019-02-24T12:37:33.735Z,102382.00
2019-02-24T12:40:07.326Z,102371.00
2019-02-24T12:42:40.183Z,102377.00
2019-02-24T12:45:14.158Z,102378.00
2019-02-24T12:47:47.047Z,102377.00
2019-02-24T12:50:19.947Z,102367.00
2019-02-24T12:52:52.812Z,102369.00
2019-02-24T12:55:25.827Z,102367.00
2019-02-24T12:57:58.934Z,102368.00
2019-02-24T13:00:31.813Z,102358.00
2019-02-24T13:03:04.733Z,102361.00
2019-02-24T13:05:37.629Z,102354.00
2019-02-24T13:08:10.511Z,102342.00
2019-02-24T13:10:43.484Z,102351.00
2019-02-24T13:13:16.349Z,102346.00
2019-02-24T13:15:49.203Z,102346.00
2019-02-24T13:18:22.169Z,102346.00
2019-02-24T13:20:55.049Z,102356.00
2019-02-24T13:23:28.025Z,102341.00
2019-02-24T13:26:00.940Z,102345.00
2019-02-24T13:28:34.162Z,102334.00
2019-02-24T13:31:07.021Z,102336.00
2019-02-24T13:33:39.882Z,102330.00
2019-02-24T13:36:12.860Z,102322.00
2019-02-24T13:38:46.230Z,102324.00
2019-02-24T13:41:19.095Z,102324.00
2019-02-24T13:43:52.070Z,102327.00
2019-02-24T13:46:24.921Z,102329.00
2019-02-24T13:48:57.794Z,102327.00
2019-02-24T13:51:30.752Z,102317.00
2019-02-24T13:54:03.577Z,102317.00
2019-02-24T13:56:36.494Z,102307.00
2019-02-24T13:59:09.432Z,102303.00
2019-02-24T14:01:42.398Z,102312.00
2019-02-24T14:04:15.293Z,102308.00
2019-02-24T14:06:48.188Z,102305.00
2019-02-24T14:09:21.109Z,102302.00
2019-02-24T14:11:55.960Z,102311.00
2019-02-24T14:14:28.851Z,102302.00
2019-02-24T14:17:01.751Z,102304.00
2019-02-24T14:19:34.792Z,102297.00
2019-02-24T14:22:09.636Z,102295.00
2019-02-24T14:24:42.672Z,102280.00
2019-02-24T14:27:15.574Z,102294.00
2019-02-24T14:29:48.439Z,102293.00
2019-02-24T14:32:21.327Z,102294.00
2019-02-24T14:34:54.272Z,102302.00
2019-02-24T14:37:27.170Z,102298.00
2019-02-24T14:40:00.053Z,102290.00
2019-02-24T14:42:33.065Z,102291.00
2019-02-24T14:45:11.422Z,102299.00
2019-02-24T14:47:44.311Z,102303.00
2019-02-24T14:50:17.251Z,102298.00
2019-02-24T14:52:50.203Z,102305.00
2019-02-24T14:55:23.030Z,102310.00
2019-02-24T14:57:55.917Z,102305.00
2019-02-24T15:00:28.944Z,102302.00
2019-02-24T15:03:01.826Z,102302.00
2019-02-24T15:05:34.690Z,102299.00
2019-02-24T15:08:07.563Z,102314.00
2019-02-24T15:10:40.455Z,102308.00
2019-02-24T15:13:13.365Z,102307.00
2019-02-24T15:15:46.313Z,102308.00
2019-02-24T15:18:19.190Z,102323.00
2019-02-24T15:20:52.142Z,102313.00
2019-02-24T15:23:25.093Z,102302.00
2019-02-24T15:25:57.979Z,102309.00
2019-02-24T15:28:30.840Z,102306.00
2019-02-24T15:31:03.699Z,102308.00
2019-02-24T15:33:36.711Z,102304.00
2019-02-24T15:36:09.540Z,102296.00
2019-02-24T15:38:42.436Z,102305.00
2019-02-24T15:41:15.308Z,102305.00
2019-02-24T15:43:48.204Z,102305.00
2019-02-24T15:46:21.045Z,102309.00
2019-02-24T15:48:53.901Z,102309.00
2019-02-24T15:51:29.837Z,102305.00
2019-02-24T15:54:03.397Z,102307.00
2019-02-24T15:56:36.485Z,102309.00
2019-02-24T15:59:09.399Z,102310.00
2019-02-24T16:01:42.278Z,102304.00
2019-02-24T16:04:15.180Z,102318.00
2019-02-24T16:06:48.138Z,102307.00
2019-02-24T16:09:21.251Z,102311.00
2019-02-24T16:11:54.138Z,102310.00
2019-02-24T16:14:27.024Z,102302.00
2019-02-24T16:16:59.914Z,102303.00
2019-02-24T16:19:32.820Z,102297.00
2019-02-24T16:22:05.816Z,102312.00
2019-02-24T16:24:38.717Z,102306.00
2019-02-24T16:27:11.731Z,102310.00
2019-02-24T16:29:44.599Z,102309.00
2019-02-24T16:32:17.442Z,102310.00
2019-02-24T16:34:50.341Z,102308.00
2019-02-24T16:37:23.256Z,102300.00
2019-02-24T16:39:56.156Z,102304.00
2019-02-24T16:42:29.013Z,102299.00
2019-02-24T16:45:02.251Z,102292.00
2019-02-24T16:47:36.258Z,102294.00
2019-02-24T16:50:12.000Z,102290.00
2019-02-24T16:52:44.853Z,102283.00
2019-02-24T16:55:17.701Z,102288.00
2019-02-24T16:57:50.589Z,102281.00
2019-02-24T17:00:23.604Z,102284.00
2019-02-24T17:02:56.570Z,102293.00
2019-02-24T17:05:29.423Z,102283.00
2019-02-24T17:08:02.287Z,102277.00
2019-02-24T17:10:35.167Z,102278.00
2019-02-24T17:13:08.022Z,102282.00
2019-02-24T17:15:40.825Z,102283.00
2019-02-24T17:18:13.735Z,102280.00
2019-02-24T17:20:46.576Z,102283.00
2019-02-24T17:23:19.528Z,102293.00
2019-02-24T17:25:53.180Z,102297.00
2019-02-24T17:28:26.106Z,102291.00
2019-02-24T17:30:59.033Z,102293.00
2019-02-24T17:33:32.768Z,102293.00
2019-02-24T17:36:07.634Z,102292.00
2019-02-24T17:38:40.618Z,102296.00
2019-02-24T17:41:13.471Z,102299.00
2019-02-24T17:43:46.333Z,102307.00
2019-02-24T17:46:19.981Z,102306.00
2019-02-24T17:48:52.849Z,102310.00
2019-02-24T17:51:25.678Z,102319.00
2019-02-24T17:53:58.745Z,102318.00
2019-02-24T17:56:32.554Z,102321.00
2019-02-24T17:59:05.730Z,102328.00
2019-02-24T18:01:38.795Z,102320.00
2019-02-24T18:04:11.678Z,102327.00
2019-02-24T18:06:44.632Z,102326.00
2019-02-24T18:09:17.535Z,102327.00
2019-02-24T18:11:50.510Z,102316.00
2019-02-24T18:14:23.332Z,102310.00
2019-02-24T18:16:56.594Z,102311.00
2019-02-24T18:19:30.583Z,102315.00
2019-02-24T18:22:03.580Z,102319.00
2019-02-24T18:24:36.469Z,102304.00
2019-02-24T18:27:09.547Z,102301.00
2019-02-24T18:29:42.594Z,102310.00
2019-02-24T18:32:15.476Z,102309.00
2019-02-24T18:34:48.311Z,102312.00
2019-02-24T18:37:21.088Z,102323.00
2019-02-24T18:39:53.945Z,102314.00
2019-02-24T18:42:26.712Z,102306.00
2019-02-24T18:44:59.496Z,102305.00
2019-02-24T18:47:32.272Z,102307.00
2019-02-24T18:50:06.781Z,102304.00
2019-02-24T18:52:39.568Z,102301.00
2019-02-24T18:55:12.707Z,102301.00
2019-02-24T18:57:45.520Z,102303.00
2019-02-24T19:00:18.704Z,102283.00
2019-02-24T19:02:51.586Z,102291.00
2019-02-24T19:05:24.405Z,102279.00
2019-02-24T19:07:57.285Z,102278.00
2019-02-24T19:10:30.086Z,102281.00
2019-02-24T19:13:02.981Z,102281.00
2019-02-24T19:15:35.806Z,102283.00
2019-02-24T19:18:08.558Z,102274.00
2019-02-24T19:20:41.547Z,102274.00
2019-02-24T19:23:14.339Z,102284.00
2019-02-24T19:25:47.145Z,102296.00
2019-02-24T19:28:19.938Z,102290.00
2019-02-24T19:30:52.724Z,102285.00
2019-02-24T19:33:25.541Z,102297.00
2019-02-24T19:35:58.339Z,102296.00
2019-02-24T19:38:31.093Z,102294.00
2019-02-24T19:41:03.944Z,102294.00
2019-02-24T19:43:36.760Z,102301.00
2019-02-24T19:46:10.668Z,102294.00
2019-02-24T19:48:43.287Z,102311.00
2019-02-24T19:51:16.100Z,102308.00
2019-02-24T19:53:48.923Z,102309.00
2019-02-24T19:56:21.678Z,102314.00
2019-02-24T19:58:54.477Z,102305.00
2019-02-24T20:01:27.402Z,102305.00
2019-02-24T20:04:00.300Z,102303.00
2019-02-24T20:06:33.057Z,102306.00
2019-02-24T20:09:06.642Z,102306.00
2019-02-24T20:11:41.009Z,102318.00
2019-02-24T20:14:13.851Z,102315.00
2019-02-24T20:16:46.861Z,102311.00
2019-02-24T20:19:19.826Z,102316.00
2019-02-24T20:21:52.851Z,102309.00
2019-02-24T20:24:25.724Z,102302.00
2019-02-24T20:26:58.659Z,102298.00
2019-02-24T20:29:31.669Z,102301.00
2019-02-24T20:32:04.573Z,102311.00
2019-02-24T20:34:37.555Z,102317.00
2019-02-24T20:37:10.450Z,102305.00
2019-02-24T20:39:43.347Z,102309.00
2019-02-24T20:42:16.266Z,102309.00
2019-02-24T20:44:49.251Z,102308.00
2019-02-24T20:47:22.215Z,102311.00
2019-02-24T20:49:55.145Z,102313.00
2019-02-24T20:52:27.996Z,102311.00
2019-02-24T20:55:00.905Z,102312.00
2019-02-24T20:57:33.910Z,102317.00
2019-02-24T21:00:20.164Z,102325.00
2019-02-24T21:02:53.110Z,102332.00
2019-02-24T21:05:26.028Z,102340.00
2019-02-24T21:07:58.997Z,102325.00
2019-02-24T21:10:32.071Z,102321.00
2019-02-24T21:13:04.939Z,102329.00
2019-02-24T21:15:37.849Z,102332.00
2019-02-24T21:18:10.829Z,102329.00
2019-02-24T21:20:43.884Z,102323.00
2019-02-24T21:23:16.891Z,102316.00
2019-02-24T21:25:49.955Z,102317.00
2019-02-24T21:28:22.922Z,102312.00
2019-02-24T21:30:55.838Z,102318.00
2019-02-24T21:33:28.691Z,102309.00
2019-02-24T21:36:01.583Z,102325.00
2019-02-24T21:38:34.389Z,102318.00
2019-02-24T21:41:07.301Z,102321.00
2019-02-24T21:43:40.135Z,102328.00
2019-02-24T21:46:12.996Z,102333.00
2019-02-24T21:48:45.872Z,102332.00
2019-02-24T21:51:18.746Z,102330.00
2019-02-24T21:53:51.636Z,102326.00
2019-02-24T21:56:24.569Z,102337.00
2019-02-24T21:58:57.477Z,102338.00
2019-02-24T22:01:30.335Z,102335.00
2019-02-24T22:04:03.292Z,102329.00
2019-02-24T22:06:36.254Z,102336.00
2019-02-24T22:09:10.269Z,102330.00
2019-02-24T22:11:43.536Z,102332.00
2019-02-24T22:14:16.394Z,102339.00
2019-02-24T22:16:49.255Z,102336.00
2019-02-24T22:19:22.121Z,102338.00
2019-02-24T22:21:55.005Z,102333.00
2019-02-24T22:24:27.893Z,102329.00
2019-02-24T22:27:00.845Z,102334.00
2019-02-24T22:29:33.847Z,102336.00
2019-02-24T22:32:06.713Z,102330.00
2019-02-24T22:34:39.538Z,102337.00
2019-02-24T22:37:12.440Z,102329.00
2019-02-24T22:39:45.296Z,102325.00
2019-02-24T22:42:18.161Z,102327.00
2019-02-24T22:44:51.034Z,102311.00
2019-02-24T22:47:23.943Z,102310.00
2019-02-24T22:49:56.799Z,102309.00
2019-02-24T22:52:29.634Z,102326.00
2019-02-24T22:55:02.814Z,102316.00
2019-02-24T22:57:35.666Z,102319.00
2019-02-24T23:00:33.883Z,102316.00
2019-02-24T23:03:08.622Z,102316.00
2019-02-24T23:05:41.452Z,102315.00
2019-02-24T23:08:14.377Z,102314.00
2019-02-24T23:10:47.511Z,102318.00
2019-02-24T23:13:20.534Z,102308.00
2019-02-24T23:15:53.376Z,102308.00
2019-02-24T23:18:26.221Z,102300.00
2019-02-24T23:20:59.159Z,102297.00
2019-02-24T23:23:32.005Z,102297.00
2019-02-24T23:26:05.698Z,102309.00
2019-02-24T23:28:38.594Z,102293.00
2019-02-24T23:31:11.534Z,102291.00
2019-02-24T23:33:44.363Z,102284.00
2019-02-24T23:36:17.226Z,102286.00
2019-02-24T23:38:50.074Z,102295.00
2019-02-24T23:41:22.902Z,102291.00
2019-02-24T23:43:55.842Z,102294.00
2019-02-24T23:46:29.775Z,102299.00
2019-02-24T23:49:02.607Z,102289.00
2019-02-24T23:51:35.453Z,102290.00
2019-02-24T23:54:08.282Z,102295.00
2019-02-24T23:56:41.136Z,102307.00
2019-02-24T23:59:14.993Z,102299.00
